Portada
METAR-TAF:

METAR-TAF

Aeroports :

Birmingham, Anglaterra

latitud: 52-27N, longitud: 001-44W, altitud: 99 m

Observació

L'informe es va fer fa 33 minuts, a les 08:20 UTC
Vent 7 kt del Sud/Sud-Oest, variant entre Sud/Sud-Est i Oest/Sud-Oest
Temperatura 17°C
Humitat 82%
Pressió 1023 hPa
Visibilitat 10 km o més
Escasses núvols a una alçada de 1600 ft
Núvols disperses a una alçada de 2300 ft

METAR: EGBB 220820Z 20007KT 160V250 9999 FEW016 SCT023 17/14 Q1023

Hora: 09:53 (08:53 UTC)

Pronòstic

L'informe es va fer fa 3 hores i 52 minuts, a les 05:01 UTC
Pronòstic vàlid del 22 a les 06 UTC al 23 a les 06 UTC
Vent 8 kt del Sud-Oest
Visibilitat 10 km o més
Núvols disperses a una alçada de 4000 ft
Probabilitat 30%
l' 23 a les 03 UTC al 23 a les 06 UTC
Visibilitat: 6000 m
Cel ennuvolat a una alçada de 800 ft

TAF: EGBB 220501Z 2206/2306 22008KT 9999 SCT040 PROB30 2303/2306 6000 BKN008

Observacions i pronòstics meteorològics de més de 4000 aeroports (METAR i TAF).

Les estacions disponibles són els punts grocs i vermells al mapa.

Posi el ratolí al punt desitjat per veure el nom de l'estació.

Feu clic per veure les observacions i els pronòstics meteorològics.

Per canviar el mapa: feu clic els botons verds amb una creu de color negre per apropar; al botó verd amb un guió per allunyar la imatge; o en les fletxes verdes per a mapes adjacents.


METAR-TAF: